Aviation Digital Data Service (ADDS)

Output produced by METARs form (0645 UTC 31 August 2015)
found at http://aviationweather.gov/adds/metars/
 
KRUT 310524Z 3106/0106 14006KT P6SM SCT070 
     FM311300 24005KT P6SM SCT040 
     FM311800 28009KT P6SM SCT040 
     FM010100 13004KT P6SM SCT040 AMD LTD TO CLD VIS AND WIND